createdAt,value
2023-01-13T00:02:43.439Z,4.34
2023-01-13T00:05:28.066Z,4.28
2023-01-13T00:08:12.936Z,4.22
2023-01-13T00:10:57.616Z,4.43
2023-01-13T00:13:42.547Z,4.53
2023-01-13T00:16:27.290Z,4.67
2023-01-13T00:19:11.964Z,4.78
2023-01-13T00:21:56.805Z,4.87
2023-01-13T00:24:41.595Z,5.01
2023-01-13T00:27:26.451Z,4.97
2023-01-13T00:30:11.059Z,4.95
2023-01-13T00:32:55.879Z,4.88
2023-01-13T00:35:40.475Z,4.97
2023-01-13T00:38:25.223Z,5.08
2023-01-13T00:41:09.981Z,5.00
2023-01-13T00:43:54.834Z,4.87
2023-01-13T00:46:39.708Z,4.76
2023-01-13T00:49:24.848Z,4.60
2023-01-13T00:52:09.758Z,4.47
2023-01-13T00:54:54.478Z,4.42
2023-01-13T00:57:39.420Z,4.37
2023-01-13T01:00:24.041Z,4.29
2023-01-13T01:03:08.951Z,4.21
2023-01-13T01:05:53.710Z,4.16
2023-01-13T01:08:38.417Z,4.14
2023-01-13T01:11:23.120Z,4.08
2023-01-13T01:14:07.901Z,3.95
2023-01-13T01:16:52.960Z,4.04
2023-01-13T01:19:38.086Z,4.10
2023-01-13T01:22:22.834Z,4.06
2023-01-13T01:25:07.578Z,4.01
2023-01-13T01:27:52.442Z,3.90
2023-01-13T01:30:37.175Z,3.94
2023-01-13T01:33:21.939Z,3.91
2023-01-13T01:36:06.662Z,3.85
2023-01-13T01:38:51.546Z,3.83
2023-01-13T01:41:36.244Z,3.71
2023-01-13T01:44:20.952Z,3.85
2023-01-13T01:47:05.726Z,4.08
2023-01-13T01:49:50.435Z,4.14
2023-01-13T01:52:35.365Z,4.09
2023-01-13T01:55:20.148Z,4.19
2023-01-13T01:58:04.912Z,4.17
2023-01-13T02:00:49.615Z,4.21
2023-01-13T02:03:34.369Z,4.17
2023-01-13T02:06:19.040Z,4.21
2023-01-13T02:09:03.849Z,4.22
2023-01-13T02:11:48.653Z,4.14
2023-01-13T02:14:33.392Z,4.20
2023-01-13T02:17:18.116Z,4.21
2023-01-13T02:20:02.788Z,4.29
2023-01-13T02:22:47.603Z,4.25
2023-01-13T02:25:32.301Z,4.33
2023-01-13T02:28:17.008Z,4.50
2023-01-13T02:31:01.846Z,4.58
2023-01-13T02:33:46.549Z,4.59
2023-01-13T02:36:31.218Z,4.54
2023-01-13T02:39:15.964Z,4.64
2023-01-13T02:42:00.639Z,4.57
2023-01-13T02:44:45.412Z,4.57
2023-01-13T02:47:30.227Z,4.55
2023-01-13T02:50:14.945Z,4.48
2023-01-13T02:52:59.728Z,4.57
2023-01-13T02:55:44.469Z,4.58
2023-01-13T02:58:29.315Z,4.57
2023-01-13T03:01:14.095Z,4.55
2023-01-13T03:03:59.327Z,4.50
2023-01-13T03:06:44.040Z,4.50
2023-01-13T03:09:28.741Z,4.43
2023-01-13T03:12:13.333Z,4.37
2023-01-13T03:14:58.122Z,4.45
2023-01-13T03:17:42.896Z,4.57
2023-01-13T03:20:27.661Z,4.57
2023-01-13T03:23:12.571Z,4.68
2023-01-13T03:25:57.323Z,4.62
2023-01-13T03:28:42.158Z,4.65
2023-01-13T03:31:26.851Z,4.61
2023-01-13T03:34:11.618Z,4.57
2023-01-13T03:36:56.284Z,4.51
2023-01-13T03:39:41.125Z,4.54
2023-01-13T03:42:25.906Z,4.59
2023-01-13T03:45:10.553Z,4.70
2023-01-13T03:47:55.269Z,4.68
2023-01-13T03:50:40.024Z,4.67
2023-01-13T03:53:24.787Z,4.56
2023-01-13T03:56:09.938Z,4.47
2023-01-13T03:58:54.785Z,4.60
2023-01-13T04:01:39.678Z,4.52
2023-01-13T04:04:24.993Z,4.44
2023-01-13T04:07:09.750Z,4.45
2023-01-13T04:09:54.588Z,4.37
2023-01-13T04:12:39.413Z,4.41
2023-01-13T04:15:24.147Z,4.37
2023-01-13T04:18:09.517Z,4.41
2023-01-13T04:20:54.272Z,4.43
2023-01-13T04:23:39.088Z,4.47
2023-01-13T04:26:23.879Z,4.55
2023-01-13T04:29:08.560Z,4.58
2023-01-13T04:31:53.265Z,4.59
2023-01-13T04:34:38.172Z,4.49
2023-01-13T04:37:22.892Z,4.52
2023-01-13T04:40:07.652Z,4.51
2023-01-13T04:42:52.482Z,4.41
2023-01-13T04:45:37.206Z,4.39
2023-01-13T04:48:22.022Z,4.40
2023-01-13T04:51:06.710Z,4.53
2023-01-13T04:53:51.485Z,4.72
2023-01-13T04:56:36.252Z,4.71
2023-01-13T04:59:21.111Z,4.72
2023-01-13T05:02:05.880Z,4.69
2023-01-13T05:04:50.637Z,4.82
2023-01-13T05:07:35.382Z,4.97
2023-01-13T05:10:21.953Z,5.01
2023-01-13T05:13:08.236Z,4.97
2023-01-13T05:15:53.065Z,4.89
2023-01-13T05:18:37.866Z,4.94
2023-01-13T05:21:22.487Z,4.97
2023-01-13T05:24:07.284Z,5.11
2023-01-13T05:26:52.125Z,5.22
2023-01-13T05:29:36.957Z,5.36
2023-01-13T05:32:21.771Z,5.51
2023-01-13T05:35:06.556Z,5.49
2023-01-13T05:37:51.354Z,5.44
2023-01-13T05:40:35.999Z,5.34
2023-01-13T05:43:20.863Z,5.24
2023-01-13T05:46:05.760Z,5.32
2023-01-13T05:48:51.019Z,5.41
2023-01-13T05:51:35.608Z,5.52
2023-01-13T05:54:20.574Z,5.59
2023-01-13T05:57:05.370Z,5.61
2023-01-13T05:59:50.144Z,5.56
2023-01-13T06:02:34.966Z,5.49
2023-01-13T06:05:19.578Z,5.47
2023-01-13T06:08:04.399Z,5.53
2023-01-13T06:10:49.028Z,5.74
2023-01-13T06:13:33.781Z,5.75
2023-01-13T06:16:18.668Z,5.77
2023-01-13T06:19:03.980Z,5.74
2023-01-13T06:21:48.698Z,5.72
2023-01-13T06:24:33.411Z,5.81
2023-01-13T06:27:18.285Z,5.89
2023-01-13T06:30:03.272Z,5.87
2023-01-13T06:32:48.284Z,5.72
2023-01-13T06:35:32.837Z,5.59
2023-01-13T06:38:17.849Z,5.49
2023-01-13T06:41:02.593Z,5.41
2023-01-13T06:43:47.324Z,5.30
2023-01-13T06:46:32.076Z,5.21
2023-01-13T06:49:17.211Z,5.21
2023-01-13T06:52:02.200Z,5.25
2023-01-13T06:54:46.901Z,5.23
2023-01-13T06:57:31.779Z,5.18
2023-01-13T07:00:16.335Z,5.14
2023-01-13T07:03:01.191Z,5.18
2023-01-13T07:05:45.820Z,5.20
2023-01-13T07:08:30.682Z,5.19
2023-01-13T07:11:15.452Z,5.18
2023-01-13T07:14:00.219Z,5.20
2023-01-13T07:16:44.970Z,5.21
2023-01-13T07:19:30.142Z,5.18
2023-01-13T07:22:14.959Z,5.22
2023-01-13T07:24:59.862Z,5.24
2023-01-13T07:27:44.629Z,5.23
2023-01-13T07:30:29.395Z,5.27
2023-01-13T07:33:14.053Z,5.41
2023-01-13T07:35:58.779Z,5.47
2023-01-13T07:38:43.681Z,5.49
2023-01-13T07:41:28.590Z,5.56
2023-01-13T07:44:13.815Z,5.58
2023-01-13T07:46:58.636Z,5.56
2023-01-13T07:49:43.388Z,5.59
2023-01-13T07:52:28.225Z,5.67
2023-01-13T07:55:13.016Z,5.68
2023-01-13T07:57:57.671Z,5.73
2023-01-13T08:00:42.489Z,5.78
2023-01-13T08:03:27.289Z,5.78
2023-01-13T08:06:11.973Z,5.80
2023-01-13T08:08:56.789Z,5.74
2023-01-13T08:11:41.463Z,5.71
2023-01-13T08:14:26.413Z,5.66
2023-01-13T08:17:11.250Z,5.64
2023-01-13T08:19:55.888Z,5.63
2023-01-13T08:22:40.875Z,5.67
2023-01-13T08:25:25.620Z,5.68
2023-01-13T08:28:10.419Z,5.70
2023-01-13T08:30:55.133Z,5.76
2023-01-13T08:33:39.812Z,5.78
2023-01-13T08:36:24.521Z,5.81
2023-01-13T08:39:09.207Z,5.83
2023-01-13T08:41:53.852Z,5.85
2023-01-13T08:44:38.731Z,5.83
2023-01-13T08:47:23.404Z,5.75
2023-01-13T08:50:08.407Z,5.65
2023-01-13T08:52:53.338Z,5.59
2023-01-13T08:55:38.112Z,5.46
2023-01-13T08:58:22.909Z,5.51
2023-01-13T09:01:07.674Z,5.55
2023-01-13T09:03:54.065Z,5.57
2023-01-13T09:06:39.307Z,5.58
2023-01-13T09:09:24.080Z,5.66
2023-01-13T09:12:08.760Z,5.64
2023-01-13T09:14:53.481Z,5.66
2023-01-13T09:17:38.418Z,5.73
2023-01-13T09:20:23.107Z,5.77
2023-01-13T09:23:10.380Z,5.86
2023-01-13T09:25:55.832Z,5.96
2023-01-13T09:28:40.470Z,6.05
2023-01-13T09:31:25.235Z,6.17
2023-01-13T09:34:09.805Z,6.35
2023-01-13T09:36:54.709Z,6.43
2023-01-13T09:39:39.367Z,6.50
2023-01-13T09:42:24.151Z,6.54
2023-01-13T09:45:08.743Z,6.57
2023-01-13T09:47:53.437Z,6.68
2023-01-13T09:50:38.237Z,6.86
2023-01-13T09:53:22.881Z,6.74
2023-01-13T09:56:07.690Z,6.53
2023-01-13T09:58:52.662Z,6.32
2023-01-13T10:01:37.330Z,6.27
2023-01-13T10:04:22.096Z,6.35
2023-01-13T10:07:06.820Z,6.37
2023-01-13T10:09:51.622Z,6.57
2023-01-13T10:12:36.488Z,6.52
2023-01-13T10:15:21.259Z,6.82
2023-01-13T10:18:06.055Z,6.86
2023-01-13T10:20:50.716Z,6.88
2023-01-13T10:23:35.509Z,6.81
2023-01-13T10:26:20.267Z,6.78
2023-01-13T10:29:04.997Z,6.63
2023-01-13T10:31:49.835Z,6.63
2023-01-13T10:34:34.770Z,6.44
2023-01-13T10:37:19.823Z,6.53
2023-01-13T10:40:04.492Z,6.58
2023-01-13T10:42:49.453Z,6.54
2023-01-13T10:45:34.046Z,6.63
2023-01-13T10:48:18.867Z,7.05
2023-01-13T10:51:03.621Z,7.13
2023-01-13T10:53:48.392Z,7.14
2023-01-13T10:56:33.126Z,7.10
2023-01-13T10:59:17.824Z,7.16
2023-01-13T11:02:12.965Z,7.22
2023-01-13T11:05:04.592Z,7.17
2023-01-13T11:07:49.350Z,7.46
2023-01-13T11:10:34.033Z,7.74
2023-01-13T11:13:18.771Z,7.89
2023-01-13T11:16:03.605Z,8.10
2023-01-13T11:18:48.397Z,8.31
2023-01-13T11:21:33.011Z,8.50
2023-01-13T11:24:17.866Z,8.68
2023-01-13T11:27:02.613Z,8.58
2023-01-13T11:29:47.299Z,8.57
2023-01-13T11:32:32.111Z,8.38
2023-01-13T11:35:16.800Z,8.33
2023-01-13T11:38:01.612Z,8.24
2023-01-13T11:40:46.339Z,8.24
2023-01-13T11:43:31.139Z,8.09
2023-01-13T11:46:15.846Z,7.95
2023-01-13T11:49:00.509Z,7.77
2023-01-13T11:51:45.309Z,7.62
2023-01-13T11:54:30.188Z,7.77
2023-01-13T11:57:14.805Z,7.73
2023-01-13T11:59:59.608Z,7.62
2023-01-13T12:02:44.670Z,7.47
2023-01-13T12:05:29.480Z,7.39
2023-01-13T12:08:14.263Z,7.41
2023-01-13T12:10:58.950Z,7.42
2023-01-13T12:13:43.779Z,7.49
2023-01-13T12:16:28.863Z,7.56
2023-01-13T12:19:13.997Z,7.60
2023-01-13T12:21:58.761Z,7.53
2023-01-13T12:24:43.445Z,7.55
2023-01-13T12:27:28.062Z,7.43
2023-01-13T12:30:12.955Z,7.34
2023-01-13T12:32:58.228Z,7.46
2023-01-13T12:35:42.945Z,7.20
2023-01-13T12:38:27.825Z,7.23
2023-01-13T12:41:12.585Z,7.41
2023-01-13T12:43:57.205Z,7.56
2023-01-13T12:46:41.912Z,7.73
2023-01-13T12:49:26.643Z,7.85
2023-01-13T12:52:11.425Z,7.76
2023-01-13T12:54:56.154Z,7.89
2023-01-13T12:57:41.323Z,8.01
2023-01-13T13:00:26.080Z,8.08
2023-01-13T13:03:10.740Z,8.07
2023-01-13T13:05:55.395Z,8.02
2023-01-13T13:08:40.237Z,8.16
2023-01-13T13:11:25.066Z,8.37
2023-01-13T13:14:10.018Z,8.56
2023-01-13T13:16:54.835Z,8.73
2023-01-13T13:19:39.936Z,8.89
2023-01-13T13:22:24.808Z,8.78
2023-01-13T13:25:09.495Z,8.41
2023-01-13T13:27:54.323Z,8.42
2023-01-13T13:30:39.009Z,8.49
2023-01-13T13:33:23.677Z,8.52
2023-01-13T13:36:08.311Z,8.59
2023-01-13T13:38:53.131Z,8.56
2023-01-13T13:41:38.398Z,8.58
2023-01-13T13:44:23.153Z,8.65
2023-01-13T13:47:07.963Z,8.71
2023-01-13T13:49:52.602Z,8.77
2023-01-13T13:52:37.365Z,8.63
2023-01-13T13:55:22.080Z,8.51
2023-01-13T13:58:06.858Z,8.45
2023-01-13T14:00:51.603Z,8.52
2023-01-13T14:03:39.040Z,8.60
2023-01-13T14:06:25.108Z,8.65
2023-01-13T14:09:09.794Z,8.44
2023-01-13T14:11:54.579Z,8.18
2023-01-13T14:14:39.340Z,8.03
2023-01-13T14:17:24.149Z,7.92
2023-01-13T14:20:09.020Z,7.98
2023-01-13T14:22:53.747Z,8.02
2023-01-13T14:25:38.427Z,8.12
2023-01-13T14:28:23.141Z,8.10
2023-01-13T14:31:07.906Z,8.06
2023-01-13T14:33:53.100Z,8.03
2023-01-13T14:36:37.923Z,7.80
2023-01-13T14:39:22.684Z,7.67
2023-01-13T14:42:07.630Z,7.73
2023-01-13T14:44:52.263Z,7.99
2023-01-13T14:47:37.041Z,8.19
2023-01-13T14:50:21.810Z,8.34
2023-01-13T14:53:06.658Z,8.09
2023-01-13T14:55:51.420Z,7.71
2023-01-13T14:58:36.069Z,7.52
2023-01-13T15:01:20.903Z,7.42
2023-01-13T15:04:06.127Z,7.40
2023-01-13T15:06:50.842Z,7.48
2023-01-13T15:09:35.522Z,7.58
2023-01-13T15:12:20.408Z,7.46
2023-01-13T15:15:05.055Z,7.32
2023-01-13T15:17:50.439Z,7.19
2023-01-13T15:20:35.221Z,7.05
2023-01-13T15:23:19.980Z,6.92
2023-01-13T15:26:04.826Z,6.96
2023-01-13T15:28:49.538Z,7.04
2023-01-13T15:31:34.393Z,7.11
2023-01-13T15:34:19.160Z,7.02
2023-01-13T15:37:04.030Z,6.92
2023-01-13T15:39:48.690Z,6.97
2023-01-13T15:42:33.668Z,6.96
2023-01-13T15:45:18.356Z,6.86
2023-01-13T15:48:03.244Z,6.81
2023-01-13T15:50:48.019Z,6.75
2023-01-13T15:53:33.225Z,6.80
2023-01-13T15:56:17.921Z,6.84
2023-01-13T15:59:02.692Z,6.85
2023-01-13T16:01:47.556Z,6.92
2023-01-13T16:04:32.259Z,6.95
2023-01-13T16:07:17.044Z,7.01
2023-01-13T16:10:01.673Z,6.96
2023-01-13T16:12:46.602Z,6.95
2023-01-13T16:15:31.296Z,6.89
2023-01-13T16:18:16.120Z,6.89
2023-01-13T16:21:00.834Z,6.92
2023-01-13T16:23:45.863Z,6.97
2023-01-13T16:26:30.456Z,6.97
2023-01-13T16:29:15.265Z,6.98
2023-01-13T16:32:00.252Z,7.03
2023-01-13T16:34:45.072Z,6.96
2023-01-13T16:37:29.784Z,6.94
2023-01-13T16:40:14.552Z,6.86
2023-01-13T16:42:59.503Z,6.98
2023-01-13T16:45:44.341Z,6.92
2023-01-13T16:48:29.119Z,6.72
2023-01-13T16:51:13.861Z,6.65
2023-01-13T16:53:58.638Z,6.62
2023-01-13T16:56:43.442Z,6.58
2023-01-13T16:59:28.124Z,6.65
2023-01-13T17:02:13.035Z,6.63
2023-01-13T17:04:57.700Z,6.70
2023-01-13T17:07:42.469Z,6.71
2023-01-13T17:10:27.257Z,6.69
2023-01-13T17:13:16.468Z,6.68
2023-01-13T17:16:01.966Z,6.61
2023-01-13T17:18:48.160Z,6.56
2023-01-13T17:21:33.231Z,6.59
2023-01-13T17:24:17.968Z,6.71
2023-01-13T17:27:02.621Z,6.74
2023-01-13T17:29:47.427Z,6.77
2023-01-13T17:32:32.271Z,6.80
2023-01-13T17:35:17.088Z,6.79
2023-01-13T17:38:01.817Z,6.67
2023-01-13T17:40:46.545Z,6.54
2023-01-13T17:43:31.204Z,6.48
2023-01-13T17:46:16.036Z,6.64
2023-01-13T17:49:00.720Z,6.62
2023-01-13T17:51:45.623Z,6.69
2023-01-13T17:54:30.294Z,6.63
2023-01-13T17:57:15.109Z,6.54
2023-01-13T17:59:59.781Z,6.51
2023-01-13T18:02:44.408Z,6.58
2023-01-13T18:05:29.115Z,6.60
2023-01-13T18:08:13.806Z,6.54
2023-01-13T18:10:58.607Z,6.50
2023-01-13T18:13:43.278Z,6.43
2023-01-13T18:16:30.385Z,6.41
2023-01-13T18:19:15.349Z,6.39
2023-01-13T18:22:00.203Z,6.39
2023-01-13T18:24:45.040Z,6.38
2023-01-13T18:27:29.845Z,6.35
2023-01-13T18:30:14.770Z,6.41
2023-01-13T18:32:59.593Z,6.47
2023-01-13T18:35:44.441Z,6.48
2023-01-13T18:38:29.230Z,6.43
2023-01-13T18:41:14.047Z,6.50
2023-01-13T18:43:58.785Z,6.48
2023-01-13T18:46:43.473Z,6.58
2023-01-13T18:49:28.087Z,6.60
2023-01-13T18:52:12.800Z,6.49
2023-01-13T18:54:57.709Z,6.33
2023-01-13T18:57:42.413Z,6.38
2023-01-13T19:00:27.289Z,6.39
2023-01-13T19:03:12.114Z,6.41
2023-01-13T19:05:56.904Z,6.26
2023-01-13T19:08:41.499Z,6.42
2023-01-13T19:11:26.230Z,6.35
2023-01-13T19:14:10.953Z,6.29
2023-01-13T19:16:55.655Z,6.34
2023-01-13T19:19:40.297Z,6.36
2023-01-13T19:22:25.206Z,6.24
2023-01-13T19:25:10.197Z,6.13
2023-01-13T19:27:54.955Z,6.18
2023-01-13T19:30:39.829Z,6.27
2023-01-13T19:33:24.586Z,6.37
2023-01-13T19:36:09.407Z,6.39
2023-01-13T19:38:54.103Z,6.39
2023-01-13T19:41:39.041Z,6.33
2023-01-13T19:44:23.836Z,6.23
2023-01-13T19:47:08.710Z,6.18
2023-01-13T19:49:53.502Z,6.13
2023-01-13T19:52:38.317Z,6.18
2023-01-13T19:55:23.165Z,6.16
2023-01-13T19:58:07.896Z,6.09
2023-01-13T20:00:52.722Z,6.11
2023-01-13T20:03:37.404Z,6.15
2023-01-13T20:06:22.266Z,6.04
2023-01-13T20:09:06.836Z,6.03
2023-01-13T20:11:51.675Z,6.06
2023-01-13T20:14:36.356Z,6.06
2023-01-13T20:17:21.132Z,5.97
2023-01-13T20:20:05.859Z,5.98
2023-01-13T20:22:50.639Z,5.87
2023-01-13T20:25:35.498Z,5.84
2023-01-13T20:28:20.639Z,5.92
2023-01-13T20:31:05.494Z,5.88
2023-01-13T20:33:50.112Z,5.75
2023-01-13T20:36:35.080Z,5.70
2023-01-13T20:39:19.739Z,5.67
2023-01-13T20:42:04.682Z,5.71
2023-01-13T20:44:49.395Z,5.74
2023-01-13T20:47:34.181Z,5.75
2023-01-13T20:50:18.923Z,5.81
2023-01-13T20:53:03.705Z,5.79
2023-01-13T20:55:48.548Z,5.81
2023-01-13T20:58:33.174Z,5.88
2023-01-13T21:01:18.105Z,5.96
2023-01-13T21:04:03.267Z,5.96
2023-01-13T21:06:47.952Z,5.93
2023-01-13T21:09:32.708Z,5.91
2023-01-13T21:12:20.423Z,5.93
2023-01-13T21:15:05.240Z,5.98
2023-01-13T21:17:49.906Z,5.90
2023-01-13T21:20:34.753Z,5.86
2023-01-13T21:23:19.464Z,5.71
2023-01-13T21:26:04.398Z,5.60
2023-01-13T21:28:49.081Z,5.69
2023-01-13T21:31:33.793Z,5.69
2023-01-13T21:34:18.518Z,5.55
2023-01-13T21:37:03.448Z,5.55
2023-01-13T21:39:48.140Z,5.46
2023-01-13T21:42:32.963Z,5.40
2023-01-13T21:45:17.999Z,5.39
2023-01-13T21:48:02.766Z,5.48
2023-01-13T21:50:47.683Z,5.54
2023-01-13T21:53:32.307Z,5.49
2023-01-13T21:56:17.294Z,5.51
2023-01-13T21:59:01.909Z,5.48
2023-01-13T22:02:22.980Z,5.47
2023-01-13T22:04:51.764Z,5.49
2023-01-13T22:07:37.471Z,5.47
2023-01-13T22:10:22.270Z,5.45
2023-01-13T22:13:07.107Z,5.40
2023-01-13T22:15:51.769Z,5.39
2023-01-13T22:18:36.569Z,5.41
2023-01-13T22:21:21.317Z,5.35
2023-01-13T22:24:06.475Z,5.31
2023-01-13T22:26:51.495Z,5.23
2023-01-13T22:29:37.759Z,5.19
2023-01-13T22:32:22.529Z,5.20
2023-01-13T22:35:07.273Z,5.21
2023-01-13T22:37:51.927Z,5.33
2023-01-13T22:40:36.640Z,5.45
2023-01-13T22:43:21.727Z,5.52
2023-01-13T22:46:06.542Z,5.57
2023-01-13T22:48:51.821Z,5.52
2023-01-13T22:51:36.561Z,5.38
2023-01-13T22:54:21.231Z,5.32
2023-01-13T22:57:05.819Z,5.32
2023-01-13T22:59:50.679Z,5.26
2023-01-13T23:02:35.318Z,5.25
2023-01-13T23:05:20.300Z,5.20
2023-01-13T23:08:05.150Z,5.21
2023-01-13T23:10:49.756Z,5.20
2023-01-13T23:13:34.562Z,5.20
2023-01-13T23:16:19.390Z,5.25
2023-01-13T23:19:04.179Z,5.31
2023-01-13T23:21:48.870Z,5.37
2023-01-13T23:24:33.619Z,5.40
2023-01-13T23:27:18.361Z,5.31
2023-01-13T23:30:03.073Z,5.25
2023-01-13T23:32:48.219Z,5.17
2023-01-13T23:35:33.318Z,5.01
2023-01-13T23:38:18.097Z,5.05
2023-01-13T23:41:02.877Z,5.11
2023-01-13T23:43:47.753Z,5.09
2023-01-13T23:46:32.504Z,5.04
2023-01-13T23:49:17.835Z,4.87
2023-01-13T23:52:02.540Z,4.81
2023-01-13T23:54:47.356Z,4.72
2023-01-13T23:57:32.019Z,4.80
